sensor_id;sensor_type;location;lat;lon;timestamp;pressure;altitude;pressure_sealevel;temperature;humidity
32109;BME280;18624;50.042;8.436;2022-08-19T00:01:28;100050.06;;;22.65;68.12
32109;BME280;18624;50.042;8.436;2022-08-19T00:03:58;99981.66;;;22.17;67.87
32109;BME280;18624;50.042;8.436;2022-08-19T00:06:26;100040.53;;;22.49;68.34
32109;BME280;18624;50.042;8.436;2022-08-19T00:08:53;100071.66;;;22.64;68.49
32109;BME280;18624;50.042;8.436;2022-08-19T00:11:19;100039.31;;;22.44;68.24
32109;BME280;18624;50.042;8.436;2022-08-19T00:13:52;100068.84;;;22.64;68.12
32109;BME280;18624;50.042;8.436;2022-08-19T00:16:19;100062.78;;;22.60;68.70
32109;BME280;18624;50.042;8.436;2022-08-19T00:18:53;100062.00;;;22.65;68.52
32109;BME280;18624;50.042;8.436;2022-08-19T00:21:19;100064.31;;;22.61;68.70
32109;BME280;18624;50.042;8.436;2022-08-19T00:23:46;100054.41;;;22.60;69.19
32109;BME280;18624;50.042;8.436;2022-08-19T00:26:13;100024.13;;;22.40;69.00
32109;BME280;18624;50.042;8.436;2022-08-19T00:28:40;100047.31;;;22.59;69.60
32109;BME280;18624;50.042;8.436;2022-08-19T00:31:07;100043.81;;;22.53;70.24
32109;BME280;18624;50.042;8.436;2022-08-19T00:33:34;100041.31;;;22.49;70.37
32109;BME280;18624;50.042;8.436;2022-08-19T00:36:03;100040.53;;;22.49;70.02
32109;BME280;18624;50.042;8.436;2022-08-19T00:38:34;100033.94;;;22.46;70.21
32109;BME280;18624;50.042;8.436;2022-08-19T00:41:05;100036.75;;;22.46;70.49
32109;BME280;18624;50.042;8.436;2022-08-19T00:43:32;100018.59;;;22.34;70.59
32109;BME280;18624;50.042;8.436;2022-08-19T00:45:59;100030.94;;;22.44;70.90
32109;BME280;18624;50.042;8.436;2022-08-19T00:48:25;100036.78;;;22.41;71.04
32109;BME280;18624;50.042;8.436;2022-08-19T00:50:53;100031.75;;;22.39;71.35
32109;BME280;18624;50.042;8.436;2022-08-19T00:53:24;100008.78;;;22.22;71.15
32109;BME280;18624;50.042;8.436;2022-08-19T00:55:55;100025.41;;;22.39;71.02
32109;BME280;18624;50.042;8.436;2022-08-19T00:58:25;100019.06;;;22.38;71.28
32109;BME280;18624;50.042;8.436;2022-08-19T01:00:53;100011.75;;;22.30;71.57
32109;BME280;18624;50.042;8.436;2022-08-19T01:03:21;99975.53;;;22.18;71.82
32109;BME280;18624;50.042;8.436;2022-08-19T01:05:49;99998.56;;;22.30;71.66
32109;BME280;18624;50.042;8.436;2022-08-19T01:08:18;99986.88;;;22.32;71.69
32109;BME280;18624;50.042;8.436;2022-08-19T01:10:47;99993.19;;;22.32;71.41
32109;BME280;18624;50.042;8.436;2022-08-19T01:13:17;99986.34;;;22.33;71.27
32109;BME280;18624;50.042;8.436;2022-08-19T01:15:48;99984.41;;;22.22;71.91
32109;BME280;18624;50.042;8.436;2022-08-19T01:18:18;99997.06;;;22.29;71.52
32109;BME280;18624;50.042;8.436;2022-08-19T01:20:46;100000.63;;;22.24;71.47
32109;BME280;18624;50.042;8.436;2022-08-19T01:23:13;99998.88;;;22.21;71.77
32109;BME280;18624;50.042;8.436;2022-08-19T01:25:48;100011.56;;;22.22;72.34
32109;BME280;18624;50.042;8.436;2022-08-19T01:28:22;100001.69;;;22.21;72.14
32109;BME280;18624;50.042;8.436;2022-08-19T01:30:59;99982.69;;;22.14;72.27
32109;BME280;18624;50.042;8.436;2022-08-19T01:33:33;99994.28;;;22.23;71.71
32109;BME280;18624;50.042;8.436;2022-08-19T01:36:44;99985.91;;;22.23;71.63
32109;BME280;18624;50.042;8.436;2022-08-19T01:39:16;99981.34;;;22.26;71.72
32109;BME280;18624;50.042;8.436;2022-08-19T01:41:43;99974.25;;;22.19;71.96
32109;BME280;18624;50.042;8.436;2022-08-19T01:44:10;99984.41;;;22.22;72.09
32109;BME280;18624;50.042;8.436;2022-08-19T01:46:44;100000.88;;;22.26;71.62
32109;BME280;18624;50.042;8.436;2022-08-19T01:49:11;100002.16;;;22.25;71.91
32109;BME280;18624;50.042;8.436;2022-08-19T01:51:38;99998.34;;;22.22;72.67
32109;BME280;18624;50.042;8.436;2022-08-19T01:54:11;99994.06;;;22.21;72.54
32109;BME280;18624;50.042;8.436;2022-08-19T01:56:50;99987.47;;;22.19;72.37
32109;BME280;18624;50.042;8.436;2022-08-19T01:59:19;99888.22;;;21.52;72.09
32109;BME280;18624;50.042;8.436;2022-08-19T02:01:47;99995.56;;;22.22;72.24
32109;BME280;18624;50.042;8.436;2022-08-19T02:04:13;100003.19;;;22.22;72.40
32109;BME280;18624;50.042;8.436;2022-08-19T02:06:40;100006.97;;;22.24;72.45
32109;BME280;18624;50.042;8.436;2022-08-19T02:09:08;99977.66;;;22.01;72.32
32109;BME280;18624;50.042;8.436;2022-08-19T02:11:36;100014.06;;;22.26;72.67
32109;BME280;18624;50.042;8.436;2022-08-19T02:14:05;100011.78;;;22.24;72.88
32109;BME280;18624;50.042;8.436;2022-08-19T02:16:32;100005.22;;;22.21;73.01
32109;BME280;18624;50.042;8.436;2022-08-19T02:18:59;100010.31;;;22.17;73.29
32109;BME280;18624;50.042;8.436;2022-08-19T02:21:29;100021.50;;;22.17;73.44
32109;BME280;18624;50.042;8.436;2022-08-19T02:23:56;100017.41;;;22.18;73.06
32109;BME280;18624;50.042;8.436;2022-08-19T02:26:23;100020.22;;;22.18;73.57
32109;BME280;18624;50.042;8.436;2022-08-19T02:28:49;100012.34;;;22.17;73.79
32109;BME280;18624;50.042;8.436;2022-08-19T02:31:19;100017.47;;;22.13;74.17
32109;BME280;18624;50.042;8.436;2022-08-19T02:33:47;99993.59;;;22.06;74.29
32109;BME280;18624;50.042;8.436;2022-08-19T02:36:15;100000.94;;;22.09;75.00
32109;BME280;18624;50.042;8.436;2022-08-19T02:38:46;100004.78;;;22.12;74.32
32109;BME280;18624;50.042;8.436;2022-08-19T02:41:26;100005.03;;;22.08;74.73
32109;BME280;18624;50.042;8.436;2022-08-19T02:43:56;99992.19;;;21.94;75.27
32109;BME280;18624;50.042;8.436;2022-08-19T02:46:46;100013.16;;;22.06;75.14
32109;BME280;18624;50.042;8.436;2022-08-19T02:49:13;99954.28;;;21.68;75.24
32109;BME280;18624;50.042;8.436;2022-08-19T02:51:43;99999.53;;;21.91;75.75
32109;BME280;18624;50.042;8.436;2022-08-19T02:54:12;100010.16;;;21.98;75.69
32109;BME280;18624;50.042;8.436;2022-08-19T02:56:40;99982.66;;;21.72;76.10
32109;BME280;18624;50.042;8.436;2022-08-19T02:59:07;100024.38;;;21.95;76.42
32109;BME280;18624;50.042;8.436;2022-08-19T03:01:40;100016.28;;;21.91;76.61
32109;BME280;18624;50.042;8.436;2022-08-19T03:04:10;100014.03;;;21.90;76.75
32109;BME280;18624;50.042;8.436;2022-08-19T03:06:39;100006.16;;;21.88;77.17
32109;BME280;18624;50.042;8.436;2022-08-19T03:09:06;100011.28;;;21.84;77.66
32109;BME280;18624;50.042;8.436;2022-08-19T03:11:34;100016.84;;;21.84;77.85
32109;BME280;18624;50.042;8.436;2022-08-19T03:14:02;100008.97;;;21.83;78.43
32109;BME280;18624;50.042;8.436;2022-08-19T03:16:31;99941.25;;;21.30;78.48
32109;BME280;18624;50.042;8.436;2022-08-19T03:19:00;99977.16;;;21.56;78.63
32109;BME280;18624;50.042;8.436;2022-08-19T03:21:33;100014.59;;;21.77;78.84
32109;BME280;18624;50.042;8.436;2022-08-19T03:24:03;100005.25;;;21.69;79.59
32109;BME280;18624;50.042;8.436;2022-08-19T03:26:30;100012.09;;;21.68;79.44
32109;BME280;18624;50.042;8.436;2022-08-19T03:28:57;99999.69;;;21.63;79.06
32109;BME280;18624;50.042;8.436;2022-08-19T03:31:26;100017.91;;;21.70;78.81
32109;BME280;18624;50.042;8.436;2022-08-19T03:34:13;100021.47;;;21.70;79.09
32109;BME280;18624;50.042;8.436;2022-08-19T03:36:40;100030.09;;;21.72;78.49
32109;BME280;18624;50.042;8.436;2022-08-19T03:39:07;100028.31;;;21.69;78.87
32109;BME280;18624;50.042;8.436;2022-08-19T03:41:41;100021.22;;;21.68;78.94
32109;BME280;18624;50.042;8.436;2022-08-19T03:44:17;100023.25;;;21.68;79.15
32109;BME280;18624;50.042;8.436;2022-08-19T03:46:56;100030.91;;;21.62;79.99
32109;BME280;18624;50.042;8.436;2022-08-19T03:49:25;100022.53;;;21.62;79.01
32109;BME280;18624;50.042;8.436;2022-08-19T03:51:55;100025.31;;;21.62;79.36
32109;BME280;18624;50.042;8.436;2022-08-19T03:54:24;100032.41;;;21.63;79.47
32109;BME280;18624;50.042;8.436;2022-08-19T03:56:54;100033.69;;;21.62;79.99
32109;BME280;18624;50.042;8.436;2022-08-19T03:59:27;100034.94;;;21.61;80.02
32109;BME280;18624;50.042;8.436;2022-08-19T04:01:57;100018.25;;;21.55;80.12
32109;BME280;18624;50.042;8.436;2022-08-19T04:04:24;100011.94;;;21.49;80.01
32109;BME280;18624;50.042;8.436;2022-08-19T04:06:55;100033.44;;;21.60;80.03
32109;BME280;18624;50.042;8.436;2022-08-19T04:09:22;100039.00;;;21.60;79.94
32109;BME280;18624;50.042;8.436;2022-08-19T04:11:53;100033.19;;;21.58;80.18
32109;BME280;18624;50.042;8.436;2022-08-19T04:14:23;100037.50;;;21.59;80.32
32109;BME280;18624;50.042;8.436;2022-08-19T04:16:51;100052.69;;;21.63;80.04
32109;BME280;18624;50.042;8.436;2022-08-19T04:19:18;100040.09;;;21.45;80.11
32109;BME280;18624;50.042;8.436;2022-08-19T04:21:47;100058.56;;;21.54;79.79
32109;BME280;18624;50.042;8.436;2022-08-19T04:24:15;100052.00;;;21.46;79.94
32109;BME280;18624;50.042;8.436;2022-08-19T04:26:41;100052.50;;;21.39;80.01
32109;BME280;18624;50.042;8.436;2022-08-19T04:29:11;100053.06;;;21.32;80.28
32109;BME280;18624;50.042;8.436;2022-08-19T04:31:39;100048.97;;;21.27;80.88
32109;BME280;18624;50.042;8.436;2022-08-19T04:34:08;100013.06;;;20.95;80.53
32109;BME280;18624;50.042;8.436;2022-08-19T04:36:39;100045.19;;;21.19;80.75
32109;BME280;18624;50.042;8.436;2022-08-19T04:39:10;100046.69;;;21.20;80.79
32109;BME280;18624;50.042;8.436;2022-08-19T04:41:37;100056.09;;;21.17;81.21
32109;BME280;18624;50.042;8.436;2022-08-19T04:44:22;99998.19;;;20.76;81.14
32109;BME280;18624;50.042;8.436;2022-08-19T04:46:49;100058.38;;;21.13;81.68
32109;BME280;18624;50.042;8.436;2022-08-19T04:49:21;100060.13;;;21.16;81.57
32109;BME280;18624;50.042;8.436;2022-08-19T04:51:53;100057.84;;;21.20;81.63
32109;BME280;18624;50.042;8.436;2022-08-19T04:54:23;100070.03;;;21.22;81.64
32109;BME280;18624;50.042;8.436;2022-08-19T04:57:07;100069.75;;;21.20;81.79
32109;BME280;18624;50.042;8.436;2022-08-19T04:59:35;100073.56;;;21.23;81.63
32109;BME280;18624;50.042;8.436;2022-08-19T05:02:03;100075.59;;;21.22;82.12
32109;BME280;18624;50.042;8.436;2022-08-19T05:04:30;100086.22;;;21.24;81.85
32109;BME280;18624;50.042;8.436;2022-08-19T05:06:59;100090.03;;;21.27;81.89
32109;BME280;18624;50.042;8.436;2022-08-19T05:09:28;100014.84;;;20.93;82.19
32109;BME280;18624;50.042;8.436;2022-08-19T05:12:15;100076.84;;;21.33;82.02
32109;BME280;18624;50.042;8.436;2022-08-19T05:14:42;100030.78;;;21.09;81.79
32109;BME280;18624;50.042;8.436;2022-08-19T05:17:08;100076.34;;;21.40;81.93
32109;BME280;18624;50.042;8.436;2022-08-19T05:19:53;100074.06;;;21.44;81.87
32109;BME280;18624;50.042;8.436;2022-08-19T05:22:39;100084.66;;;21.51;81.66
32109;BME280;18624;50.042;8.436;2022-08-19T05:25:13;100082.13;;;21.59;81.06
32109;BME280;18624;50.042;8.436;2022-08-19T05:27:41;100072.72;;;21.62;81.20
32109;BME280;18624;50.042;8.436;2022-08-19T05:30:09;100070.69;;;21.62;81.21
32109;BME280;18624;50.042;8.436;2022-08-19T05:32:36;100069.66;;;21.65;80.68
32109;BME280;18624;50.042;8.436;2022-08-19T05:35:03;100067.13;;;21.67;80.96
32109;BME280;18624;50.042;8.436;2022-08-19T05:37:30;100078.75;;;21.77;80.71
32109;BME280;18624;50.042;8.436;2022-08-19T05:39:57;100066.09;;;21.76;80.41
32109;BME280;18624;50.042;8.436;2022-08-19T05:42:23;100081.75;;;21.85;80.45
32109;BME280;18624;50.042;8.436;2022-08-19T05:44:51;100065.84;;;21.68;80.58
32109;BME280;18624;50.042;8.436;2022-08-19T05:47:19;100051.91;;;21.68;80.99
32109;BME280;18624;50.042;8.436;2022-08-19T05:49:47;100090.38;;;21.87;82.06
32109;BME280;18624;50.042;8.436;2022-08-19T05:52:16;100078.41;;;21.92;80.16
32109;BME280;18624;50.042;8.436;2022-08-19T05:54:45;100075.88;;;21.94;80.08
32109;BME280;18624;50.042;8.436;2022-08-19T05:57:18;100061.50;;;21.79;81.11
32109;BME280;18624;50.042;8.436;2022-08-19T05:59:45;100061.47;;;21.84;79.82
32109;BME280;18624;50.042;8.436;2022-08-19T06:02:25;100084.97;;;22.00;79.52
32109;BME280;18624;50.042;8.436;2022-08-19T06:04:52;100086.78;;;21.97;80.65
32109;BME280;18624;50.042;8.436;2022-08-19T06:07:19;100102.97;;;22.05;80.39
32109;BME280;18624;50.042;8.436;2022-08-19T06:09:46;100059.25;;;21.71;78.85
32109;BME280;18624;50.042;8.436;2022-08-19T06:12:33;100100.66;;;22.09;79.73
32109;BME280;18624;50.042;8.436;2022-08-19T06:15:07;100102.72;;;22.08;80.01
32109;BME280;18624;50.042;8.436;2022-08-19T06:17:34;100105.50;;;22.08;79.23
32109;BME280;18624;50.042;8.436;2022-08-19T06:20:07;100113.34;;;22.10;78.23
32109;BME280;18624;50.042;8.436;2022-08-19T06:22:42;100128.81;;;22.11;78.97
32109;BME280;18624;50.042;8.436;2022-08-19T06:25:10;100128.06;;;22.10;80.12
32109;BME280;18624;50.042;8.436;2022-08-19T06:27:37;100127.28;;;22.15;79.48
32109;BME280;18624;50.042;8.436;2022-08-19T06:30:23;100139.16;;;22.27;79.60
32109;BME280;18624;50.042;8.436;2022-08-19T06:32:50;100141.16;;;22.32;79.72
32109;BME280;18624;50.042;8.436;2022-08-19T06:35:18;100143.22;;;22.32;79.10
32109;BME280;18624;50.042;8.436;2022-08-19T06:37:45;100152.78;;;22.42;79.41
32109;BME280;18624;50.042;8.436;2022-08-19T06:40:11;100154.03;;;22.46;77.76
32109;BME280;18624;50.042;8.436;2022-08-19T06:42:39;100158.84;;;22.52;78.58
32109;BME280;18624;50.042;8.436;2022-08-19T06:45:18;100168.75;;;22.53;78.16
32109;BME280;18624;50.042;8.436;2022-08-19T06:47:51;100163.91;;;22.53;78.20
32109;BME280;18624;50.042;8.436;2022-08-19T06:50:20;100100.91;;;22.16;79.06
32109;BME280;18624;50.042;8.436;2022-08-19T06:52:50;100155.25;;;22.57;78.94
32109;BME280;18624;50.042;8.436;2022-08-19T06:55:18;100157.00;;;22.60;78.60
32109;BME280;18624;50.042;8.436;2022-08-19T06:57:45;100166.63;;;22.64;78.07
32109;BME280;18624;50.042;8.436;2022-08-19T07:00:12;100177.00;;;22.69;78.04
32109;BME280;18624;50.042;8.436;2022-08-19T07:02:43;100163.50;;;22.73;76.61
32109;BME280;18624;50.042;8.436;2022-08-19T07:05:18;100166.84;;;22.72;76.92
32109;BME280;18624;50.042;8.436;2022-08-19T07:07:45;100174.94;;;22.75;77.22
32109;BME280;18624;50.042;8.436;2022-08-19T07:10:13;100164.00;;;22.78;75.33
32109;BME280;18624;50.042;8.436;2022-08-19T07:12:40;100158.38;;;22.83;76.37
32109;BME280;18624;50.042;8.436;2022-08-19T07:15:07;100167.22;;;22.87;75.16
32109;BME280;18624;50.042;8.436;2022-08-19T07:17:37;100162.66;;;22.90;76.52
32109;BME280;18624;50.042;8.436;2022-08-19T07:20:07;100165.94;;;22.94;73.79
32109;BME280;18624;50.042;8.436;2022-08-19T07:22:36;100132.78;;;22.73;74.05
32109;BME280;18624;50.042;8.436;2022-08-19T07:25:05;100172.25;;;23.00;75.03
32109;BME280;18624;50.042;8.436;2022-08-19T07:27:32;100174.06;;;22.97;74.15
32109;BME280;18624;50.042;8.436;2022-08-19T07:30:00;100174.06;;;22.97;74.15
32109;BME280;18624;50.042;8.436;2022-08-19T07:32:27;100172.56;;;22.91;74.33
32109;BME280;18624;50.042;8.436;2022-08-19T07:34:54;100165.69;;;22.92;75.16
32109;BME280;18624;50.042;8.436;2022-08-19T07:37:23;100103.28;;;22.48;74.03
32109;BME280;18624;50.042;8.436;2022-08-19T07:39:58;100121.69;;;22.62;73.87
32109;BME280;18624;50.042;8.436;2022-08-19T07:42:25;100164.09;;;23.02;74.31
32109;BME280;18624;50.042;8.436;2022-08-19T07:44:52;100164.25;;;23.15;72.08
32109;BME280;18624;50.042;8.436;2022-08-19T07:47:19;100162.09;;;23.27;72.36
32109;BME280;18624;50.042;8.436;2022-08-19T07:50:08;100169.81;;;23.45;72.07
32109;BME280;18624;50.042;8.436;2022-08-19T07:52:38;100160.28;;;23.60;70.83
32109;BME280;18624;50.042;8.436;2022-08-19T07:55:07;100167.00;;;23.75;71.29
32109;BME280;18624;50.042;8.436;2022-08-19T07:57:54;100167.56;;;23.93;68.39
32109;BME280;18624;50.042;8.436;2022-08-19T08:00:21;100092.69;;;23.56;69.05
32109;BME280;18624;50.042;8.436;2022-08-19T08:02:50;100172.88;;;24.15;67.00
32109;BME280;18624;50.042;8.436;2022-08-19T08:05:20;100128.47;;;23.87;66.57
32109;BME280;18624;50.042;8.436;2022-08-19T08:08:09;100165.31;;;24.10;67.33
32109;BME280;18624;50.042;8.436;2022-08-19T08:11:13;100176.38;;;24.21;66.41
32109;BME280;18624;50.042;8.436;2022-08-19T08:13:41;100176.28;;;24.27;68.47
32109;BME280;18624;50.042;8.436;2022-08-19T08:16:08;100137.63;;;24.07;65.14
32109;BME280;18624;50.042;8.436;2022-08-19T08:18:39;100183.94;;;24.26;63.74
32109;BME280;18624;50.042;8.436;2022-08-19T08:21:15;100181.97;;;24.21;64.81
32109;BME280;18624;50.042;8.436;2022-08-19T08:23:42;100156.00;;;24.02;65.50
32109;BME280;18624;50.042;8.436;2022-08-19T08:26:09;100185.97;;;24.26;63.48
32109;BME280;18624;50.042;8.436;2022-08-19T08:28:38;100157.75;;;24.05;65.50
32109;BME280;18624;50.042;8.436;2022-08-19T08:31:06;100112.03;;;23.78;64.37
32109;BME280;18624;50.042;8.436;2022-08-19T08:33:35;100187.59;;;24.40;65.54
32109;BME280;18624;50.042;8.436;2022-08-19T08:36:05;100182.41;;;24.50;64.81
32109;BME280;18624;50.042;8.436;2022-08-19T08:38:32;100195.19;;;24.64;61.81
32109;BME280;18624;50.042;8.436;2022-08-19T08:43:51;100199.78;;;24.81;63.19
32109;BME280;18624;50.042;8.436;2022-08-19T08:46:30;100189.47;;;24.89;60.92
32109;BME280;18624;50.042;8.436;2022-08-19T08:51:46;100191.63;;;25.15;61.51
32109;BME280;18624;50.042;8.436;2022-08-19T08:54:35;100205.59;;;25.34;62.17
32109;BME280;18624;50.042;8.436;2022-08-19T08:57:08;100181.78;;;25.40;61.39
32109;BME280;18624;50.042;8.436;2022-08-19T08:59:40;100198.53;;;25.59;59.56
32109;BME280;18624;50.042;8.436;2022-08-19T09:02:07;100128.34;;;25.19;60.25
32109;BME280;18624;50.042;8.436;2022-08-19T09:04:35;100187.75;;;25.63;60.12
32109;BME280;18624;50.042;8.436;2022-08-19T09:13:19;100193.16;;;26.01;59.47
32109;BME280;18624;50.042;8.436;2022-08-19T09:15:58;100180.63;;;26.02;59.02
32109;BME280;18624;50.042;8.436;2022-08-19T09:18:49;100186.56;;;26.12;59.20
32109;BME280;18624;50.042;8.436;2022-08-19T09:21:22;100187.34;;;26.12;56.18
32109;BME280;18624;50.042;8.436;2022-08-19T09:23:59;100183.66;;;26.17;57.63
32109;BME280;18624;50.042;8.436;2022-08-19T09:26:29;100177.72;;;26.21;56.24
32109;BME280;18624;50.042;8.436;2022-08-19T09:29:22;100169.47;;;26.23;56.50
32109;BME280;18624;50.042;8.436;2022-08-19T09:31:54;100174.34;;;26.22;57.17
32109;BME280;18624;50.042;8.436;2022-08-19T09:34:21;100172.28;;;26.23;56.57
32109;BME280;18624;50.042;8.436;2022-08-19T09:36:48;100166.78;;;26.31;56.95
32109;BME280;18624;50.042;8.436;2022-08-19T09:39:20;100122.09;;;26.06;54.81
32109;BME280;18624;50.042;8.436;2022-08-19T09:41:47;100162.84;;;26.34;55.49
32109;BME280;18624;50.042;8.436;2022-08-19T09:44:16;100099.00;;;26.00;56.76
32109;BME280;18624;50.042;8.436;2022-08-19T09:46:44;100171.38;;;26.55;55.50
32109;BME280;18624;50.042;8.436;2022-08-19T09:49:13;100158.16;;;26.63;53.93
32109;BME280;18624;50.042;8.436;2022-08-19T09:51:40;100155.44;;;26.70;54.57
32109;BME280;18624;50.042;8.436;2022-08-19T09:54:07;100173.38;;;26.67;52.14
32109;BME280;18624;50.042;8.436;2022-08-19T09:56:36;100165.91;;;26.70;52.30
32109;BME280;18624;50.042;8.436;2022-08-19T09:59:03;100170.66;;;26.75;50.62
32109;BME280;18624;50.042;8.436;2022-08-19T10:01:31;100143.81;;;26.53;52.08
32109;BME280;18624;50.042;8.436;2022-08-19T10:04:00;100169.50;;;26.70;52.56
32109;BME280;18624;50.042;8.436;2022-08-19T10:06:33;100160.50;;;26.72;53.18
32109;BME280;18624;50.042;8.436;2022-08-19T10:09:15;100166.69;;;26.70;52.11
32109;BME280;18624;50.042;8.436;2022-08-19T10:11:51;100122.91;;;26.27;52.18
32109;BME280;18624;50.042;8.436;2022-08-19T10:14:20;100124.88;;;26.06;52.72
32109;BME280;18624;50.042;8.436;2022-08-19T10:16:49;100170.13;;;26.16;53.85
32109;BME280;18624;50.042;8.436;2022-08-19T10:19:16;100160.97;;;26.02;53.76
32109;BME280;18624;50.042;8.436;2022-08-19T10:21:51;100150.94;;;25.93;53.37
32109;BME280;18624;50.042;8.436;2022-08-19T10:24:18;100160.88;;;25.94;53.19
32109;BME280;18624;50.042;8.436;2022-08-19T10:26:46;100149.44;;;25.92;52.99
32109;BME280;18624;50.042;8.436;2022-08-19T10:29:22;100145.97;;;25.99;51.96
32109;BME280;18624;50.042;8.436;2022-08-19T10:32:03;100103.88;;;25.86;51.14
32109;BME280;18624;50.042;8.436;2022-08-19T10:34:38;100150.25;;;26.27;50.35
32109;BME280;18624;50.042;8.436;2022-08-19T10:37:18;100156.72;;;26.35;50.69
32109;BME280;18624;50.042;8.436;2022-08-19T10:39:58;100153.97;;;26.43;49.45
32109;BME280;18624;50.042;8.436;2022-08-19T10:42:24;100163.50;;;26.40;50.09
32109;BME280;18624;50.042;8.436;2022-08-19T10:44:51;100153.00;;;26.40;49.79
32109;BME280;18624;50.042;8.436;2022-08-19T10:47:18;100155.16;;;26.47;48.93
32109;BME280;18624;50.042;8.436;2022-08-19T10:49:55;100157.22;;;26.47;49.22
32109;BME280;18624;50.042;8.436;2022-08-19T10:52:41;100121.72;;;26.23;49.48
32109;BME280;18624;50.042;8.436;2022-08-19T10:55:18;100116.44;;;26.19;50.47
32109;BME280;18624;50.042;8.436;2022-08-19T10:58:04;100145.78;;;26.45;50.13
32109;BME280;18624;50.042;8.436;2022-08-19T11:00:36;100137.78;;;26.49;50.08
32109;BME280;18624;50.042;8.436;2022-08-19T11:03:03;100132.16;;;26.49;50.67
32109;BME280;18624;50.042;8.436;2022-08-19T11:05:29;100136.63;;;26.65;49.51
32109;BME280;18624;50.042;8.436;2022-08-19T11:08:05;100135.75;;;26.70;49.29
32109;BME280;18624;50.042;8.436;2022-08-19T11:10:51;100129.03;;;26.73;49.42
32109;BME280;18624;50.042;8.436;2022-08-19T11:13:20;100115.84;;;26.68;49.72
32109;BME280;18624;50.042;8.436;2022-08-19T11:15:46;100121.75;;;26.78;49.30
32109;BME280;18624;50.042;8.436;2022-08-19T11:18:13;100108.94;;;26.69;47.48
32109;BME280;18624;50.042;8.436;2022-08-19T11:20:40;100125.53;;;26.81;47.08
32109;BME280;18624;50.042;8.436;2022-08-19T11:23:06;100054.56;;;26.46;47.62
32109;BME280;18624;50.042;8.436;2022-08-19T11:25:33;100110.78;;;26.88;47.40
32109;BME280;18624;50.042;8.436;2022-08-19T11:28:00;100056.91;;;26.55;46.73
32109;BME280;18624;50.042;8.436;2022-08-19T11:30:27;100107.47;;;26.97;45.63
32109;BME280;18624;50.042;8.436;2022-08-19T11:32:54;100103.38;;;26.98;45.95
32109;BME280;18624;50.042;8.436;2022-08-19T11:35:20;100099.44;;;27.01;45.82
32109;BME280;18624;50.042;8.436;2022-08-19T11:37:49;100106.38;;;27.00;46.08
32109;BME280;18624;50.042;8.436;2022-08-19T11:40:16;100090.41;;;26.95;45.76
32109;BME280;18624;50.042;8.436;2022-08-19T11:42:42;100084.19;;;26.89;45.70
32109;BME280;18624;50.042;8.436;2022-08-19T11:45:27;100082.13;;;26.89;44.80
32109;BME280;18624;50.042;8.436;2022-08-19T11:47:54;100076.34;;;26.95;45.38
32109;BME280;18624;50.042;8.436;2022-08-19T11:50:21;100063.03;;;26.95;45.64
32109;BME280;18624;50.042;8.436;2022-08-19T11:52:49;100062.09;;;26.93;45.75
32109;BME280;18624;50.042;8.436;2022-08-19T11:55:17;100048.03;;;26.93;45.16
32109;BME280;18624;50.042;8.436;2022-08-19T11:57:43;100062.69;;;26.99;43.07
32109;BME280;18624;50.042;8.436;2022-08-19T12:00:11;100061.94;;;26.98;44.04
32109;BME280;18624;50.042;8.436;2022-08-19T12:02:39;100062.88;;;27.01;43.77
32109;BME280;18624;50.042;8.436;2022-08-19T12:05:06;100020.13;;;26.74;42.61
32109;BME280;18624;50.042;8.436;2022-08-19T12:07:37;100069.13;;;27.07;42.72
32109;BME280;18624;50.042;8.436;2022-08-19T12:10:04;100079.50;;;27.12;42.20
32109;BME280;18624;50.042;8.436;2022-08-19T12:12:31;100081.56;;;27.12;42.30
32109;BME280;18624;50.042;8.436;2022-08-19T12:14:57;100065.91;;;27.03;41.89
32109;BME280;18624;50.042;8.436;2022-08-19T12:17:26;100058.50;;;26.92;42.14
32109;BME280;18624;50.042;8.436;2022-08-19T12:19:53;100072.56;;;27.13;42.90
32109;BME280;18624;50.042;8.436;2022-08-19T12:22:20;100077.69;;;27.22;41.26
32109;BME280;18624;50.042;8.436;2022-08-19T12:24:48;100073.97;;;27.27;40.98
32109;BME280;18624;50.042;8.436;2022-08-19T12:27:17;100066.44;;;27.22;41.97
32109;BME280;18624;50.042;8.436;2022-08-19T12:29:57;100070.00;;;27.23;42.61
32109;BME280;18624;50.042;8.436;2022-08-19T12:32:26;100066.44;;;27.22;42.03
32109;BME280;18624;50.042;8.436;2022-08-19T12:34:53;100065.50;;;27.20;40.61
32109;BME280;18624;50.042;8.436;2022-08-19T12:37:20;100033.97;;;26.93;40.34
32109;BME280;18624;50.042;8.436;2022-08-19T12:39:47;100062.47;;;27.18;40.31
32109;BME280;18624;50.042;8.436;2022-08-19T12:42:14;100054.94;;;27.13;41.07
32109;BME280;18624;50.042;8.436;2022-08-19T12:44:42;100057.66;;;27.26;41.28
32109;BME280;18624;50.042;8.436;2022-08-19T12:47:11;100057.31;;;27.30;41.49
32109;BME280;18624;50.042;8.436;2022-08-19T12:49:39;100062.22;;;27.37;40.16
32109;BME280;18624;50.042;8.436;2022-08-19T12:52:23;100048.75;;;27.43;40.70
32109;BME280;18624;50.042;8.436;2022-08-19T12:54:51;99993.34;;;27.01;40.77
32109;BME280;18624;50.042;8.436;2022-08-19T12:57:21;100034.44;;;27.33;41.75
32109;BME280;18624;50.042;8.436;2022-08-19T12:59:56;100052.16;;;27.49;40.99
32109;BME280;18624;50.042;8.436;2022-08-19T13:02:23;100048.06;;;27.58;39.34
32109;BME280;18624;50.042;8.436;2022-08-19T13:04:50;100044.91;;;27.61;39.65
32109;BME280;18624;50.042;8.436;2022-08-19T13:07:16;100034.78;;;27.66;38.79
32109;BME280;18624;50.042;8.436;2022-08-19T13:09:43;99990.53;;;27.30;38.99
32109;BME280;18624;50.042;8.436;2022-08-19T13:12:09;99954.75;;;27.02;38.38
32109;BME280;18624;50.042;8.436;2022-08-19T13:14:39;100050.16;;;27.65;38.99
32109;BME280;18624;50.042;8.436;2022-08-19T13:17:07;100016.44;;;27.36;38.53
32109;BME280;18624;50.042;8.436;2022-08-19T13:19:36;100068.72;;;27.60;38.48